MOLO123 EFJY-EFVA

Flight info

Callsign MOLO123
Flight time N/A
Altitude 12000
Route OSKEK DCT RERBU
Aircraft C408/M-SDFGRY/S

Departure

Time 2026-04-12 14:13
Airport Jyväskylä Airport (EFJY)

Arrival

Time N/A
Airport Vaasa Airport (EFVA)
Time Latitude Longitude Altitude Speed Heading
2026-04-12 13:56 62.39858 25.66776 467 ft 0 kts 28°
2026-04-12 14:06 62.39875 25.66817 468 ft 14 kts 55°
2026-04-12 14:07 62.39986 25.67070 469 ft 21 kts 41°
2026-04-12 14:07 62.40042 25.67041 469 ft 14 kts 310°
2026-04-12 14:07 62.40159 25.66780 471 ft 31 kts 314°
2026-04-12 14:07 62.40323 25.66426 477 ft 35 kts 309°
2026-04-12 14:08 62.40493 25.66030 478 ft 37 kts 314°
2026-04-12 14:08 62.40641 25.65787 479 ft 27 kts 350°
2026-04-12 14:08 62.40720 25.65990 486 ft 20 kts 86°
2026-04-12 14:08 62.40711 25.66124 484 ft 0 kts 136°
2026-04-12 14:12 62.40634 25.66294 482 ft 49 kts 131°
2026-04-12 14:12 62.40244 25.67164 560 ft 101 kts 134°
2026-04-12 14:13 62.39711 25.68395 899 ft 117 kts 127°
2026-04-12 14:13 62.39665 25.70048 1484 ft 121 kts 62°
2026-04-12 14:13 62.40428 25.70820 2090 ft 134 kts 356°
2026-04-12 14:13 62.41187 25.69703 2677 ft 141 kts 293°
2026-04-12 14:14 62.41557 25.67780 3188 ft 142 kts 311°
2026-04-12 14:14 62.42249 25.66271 3761 ft 142 kts 312°
2026-04-12 14:14 62.42931 25.64716 4320 ft 141 kts 313°
2026-04-12 14:14 62.43608 25.63191 4863 ft 145 kts 313°
2026-04-12 14:15 62.44314 25.61604 5406 ft 146 kts 314°
2026-04-12 14:15 62.45006 25.60018 5960 ft 145 kts 313°
2026-04-12 14:15 62.45709 25.58415 6477 ft 148 kts 313°
2026-04-12 14:15 62.46421 25.56776 6970 ft 150 kts 313°
2026-04-12 14:16 62.47138 25.55119 7471 ft 151 kts 313°
2026-04-12 14:16 62.47857 25.53459 7975 ft 151 kts 313°
2026-04-12 14:16 62.48334 25.52347 8290 ft 153 kts 313°
2026-04-12 14:16 62.49294 25.50082 8957 ft 154 kts 313°
2026-04-12 14:17 62.50024 25.48368 9447 ft 156 kts 313°
2026-04-12 14:17 62.50760 25.46632 9942 ft 157 kts 313°
2026-04-12 14:17 62.51261 25.45450 10277 ft 158 kts 313°
2026-04-12 14:17 62.52243 25.43114 10890 ft 159 kts 313°
2026-04-12 14:18 62.52736 25.41936 11189 ft 160 kts 313°
2026-04-12 14:18 62.53481 25.40144 11644 ft 160 kts 313°
2026-04-12 14:18 62.54224 25.38341 12116 ft 160 kts 313°
2026-04-12 14:18 62.54985 25.36481 12364 ft 176 kts 313°
2026-04-12 14:19 62.55852 25.34371 12379 ft 197 kts 313°
2026-04-12 14:19 62.56799 25.32073 12379 ft 210 kts 313°
2026-04-12 14:19 62.57786 25.29681 12393 ft 215 kts 313°
2026-04-12 14:19 62.58793 25.27239 12385 ft 218 kts 313°
2026-04-12 14:20 62.59807 25.24782 12380 ft 219 kts 313°
2026-04-12 14:20 62.60826 25.22315 12380 ft 219 kts 313°
2026-04-12 14:20 62.61845 25.19848 12380 ft 219 kts 313°
2026-04-12 14:20 62.62867 25.17375 12384 ft 218 kts 313°
2026-04-12 14:21 62.63861 25.14971 12376 ft 216 kts 313°
2026-04-12 14:21 62.64866 25.12555 12372 ft 215 kts 313°
2026-04-12 14:21 62.65870 25.10152 12373 ft 214 kts 313°
2026-04-12 14:21 62.66869 25.07761 12371 ft 212 kts 313°
2026-04-12 14:22 62.67692 25.05150 12364 ft 209 kts 297°
2026-04-12 14:22 62.68349 25.02322 12344 ft 209 kts 296°
2026-04-12 14:22 62.68968 24.99453 12328 ft 209 kts 293°
2026-04-12 14:22 62.69554 24.96540 12314 ft 210 kts 293°
2026-04-12 14:23 62.70136 24.93627 12318 ft 209 kts 293°
2026-04-12 14:23 62.70716 24.90713 12312 ft 209 kts 293°
2026-04-12 14:23 62.71286 24.87844 12291 ft 209 kts 293°
2026-04-12 14:23 62.71873 24.84891 12277 ft 210 kts 293°
2026-04-12 14:24 62.72446 24.82016 12289 ft 209 kts 293°
2026-04-12 14:24 62.73029 24.79094 12287 ft 210 kts 293°
2026-04-12 14:24 62.73615 24.76158 12176 ft 213 kts 293°
2026-04-12 14:24 62.74215 24.73146 11929 ft 219 kts 293°
2026-04-12 14:25 62.74824 24.70071 11683 ft 221 kts 291°
2026-04-12 14:25 62.75387 24.66947 11437 ft 221 kts 290°
2026-04-12 14:25 62.75937 24.63827 11280 ft 218 kts 290°
2026-04-12 14:25 62.76500 24.60807 11242 ft 213 kts 294°
2026-04-12 14:26 62.77119 24.57877 11177 ft 212 kts 294°
2026-04-12 14:26 62.77734 24.54945 11101 ft 212 kts 294°
2026-04-12 14:26 62.78350 24.52016 11067 ft 210 kts 294°
2026-04-12 14:26 62.78942 24.49151 11065 ft 209 kts 293°
2026-04-12 14:27 62.79532 24.46252 11062 ft 209 kts 293°
2026-04-12 14:27 62.80118 24.43352 11061 ft 208 kts 292°
2026-04-12 14:27 62.80683 24.40426 11060 ft 208 kts 291°
2026-04-12 14:27 62.81270 24.37545 11058 ft 208 kts 295°
2026-04-12 14:28 62.81894 24.34699 11059 ft 208 kts 295°
2026-04-12 14:28 62.82522 24.31849 11059 ft 208 kts 295°
2026-04-12 14:28 62.83151 24.28998 11058 ft 208 kts 295°
2026-04-12 14:28 62.83780 24.26141 11058 ft 208 kts 295°
2026-04-12 14:29 62.84406 24.23289 11058 ft 208 kts 294°
2026-04-12 14:29 62.85009 24.20454 11058 ft 208 kts 294°
2026-04-12 14:29 62.85615 24.17584 11057 ft 207 kts 294°
2026-04-12 14:29 62.86220 24.14711 11059 ft 208 kts 294°
2026-04-12 14:30 62.86824 24.11835 11056 ft 208 kts 294°
2026-04-12 14:30 62.87428 24.08959 11056 ft 208 kts 294°
2026-04-12 14:30 62.88036 24.06080 11055 ft 208 kts 294°
2026-04-12 14:30 62.88642 24.03206 11056 ft 208 kts 294°
2026-04-12 14:31 62.89246 24.00333 11053 ft 208 kts 294°
2026-04-12 14:31 62.89850 23.97454 11051 ft 208 kts 294°
2026-04-12 14:31 62.90455 23.94572 11052 ft 208 kts 294°
2026-04-12 14:31 62.91052 23.91728 11050 ft 208 kts 294°
2026-04-12 14:32 62.91657 23.88852 11050 ft 208 kts 294°
2026-04-12 14:32 62.92262 23.85970 11051 ft 208 kts 294°
2026-04-12 14:32 62.92870 23.83087 11056 ft 208 kts 294°
2026-04-12 14:32 62.93487 23.80207 11056 ft 211 kts 294°
2026-04-12 14:33 62.94117 23.77257 11063 ft 215 kts 294°
2026-04-12 14:33 62.94755 23.74264 11064 ft 217 kts 294°
2026-04-12 14:33 62.95398 23.71247 11061 ft 218 kts 294°
2026-04-12 14:33 62.96044 23.68218 11059 ft 219 kts 294°
2026-04-12 14:34 62.96691 23.65186 11061 ft 219 kts 294°
2026-04-12 14:34 62.97337 23.62152 11059 ft 219 kts 294°
2026-04-12 14:34 62.97981 23.59116 11060 ft 219 kts 294°
2026-04-12 14:34 62.98623 23.56086 11060 ft 219 kts 294°
2026-04-12 14:35 62.99259 23.53092 11061 ft 219 kts 294°
2026-04-12 14:35 62.99903 23.50054 11056 ft 219 kts 294°
2026-04-12 14:35 63.00549 23.47008 11057 ft 219 kts 294°
2026-04-12 14:35 63.01192 23.43968 11052 ft 219 kts 294°
2026-04-12 14:36 63.01836 23.40926 11051 ft 219 kts 294°
2026-04-12 14:36 63.02481 23.37884 11051 ft 219 kts 294°
2026-04-12 14:36 63.03126 23.34841 11051 ft 219 kts 294°
2026-04-12 14:36 63.03768 23.31800 11052 ft 219 kts 294°
2026-04-12 14:37 63.04411 23.28749 11053 ft 219 kts 294°
2026-04-12 14:37 63.05056 23.25697 11052 ft 219 kts 294°
2026-04-12 14:37 63.05701 23.22647 11052 ft 219 kts 294°
2026-04-12 14:37 63.06341 23.19598 11051 ft 219 kts 293°
2026-04-12 14:38 63.06754 23.17570 11057 ft 219 kts 292°
2026-04-12 14:38 63.07582 23.13497 11046 ft 220 kts 292°
2026-04-12 14:38 63.08212 23.10422 11048 ft 220 kts 292°
2026-04-12 14:38 63.08844 23.07338 11044 ft 220 kts 292°
2026-04-12 14:39 63.09473 23.04257 11044 ft 220 kts 292°
2026-04-12 14:39 63.10103 23.01176 11046 ft 220 kts 292°
2026-04-12 14:39 63.10736 22.98086 11047 ft 220 kts 292°
2026-04-12 14:39 63.11367 22.95004 11049 ft 220 kts 294°
2026-04-12 14:40 63.11996 22.91933 11002 ft 217 kts 297°
2026-04-12 14:40 63.13224 22.90564 8649 ft 221 kts 14°
2026-04-12 14:40 63.14421 22.92564 6144 ft 176 kts 20°
2026-04-12 14:40 63.14235 22.94553 3741 ft 214 kts 158°
2026-04-12 14:41 63.13079 22.94085 1845 ft 213 kts 272°
2026-04-12 14:41 63.12539 22.93401 2354 ft 90 kts 128°
2026-04-12 14:41 63.12186 22.94384 2274 ft 103 kts 132°
2026-04-12 14:41 63.11364 22.95974 1352 ft 158 kts 147°
2026-04-12 14:42 63.10563 22.97431 1012 ft 150 kts 129°
2026-04-12 14:42 63.10194 22.99103 872 ft 108 kts 115°
2026-04-12 14:42 63.09769 23.00593 590 ft 88 kts 128°